createdAt,value
2019-02-07T00:00:33.029Z,877.06
2019-02-07T00:02:25.587Z,877.04
2019-02-07T00:03:25.555Z,877.02
2019-02-07T00:05:18.707Z,876.99
2019-02-07T00:06:18.668Z,877.01
2019-02-07T00:08:11.481Z,877.05
2019-02-07T00:09:11.025Z,877.02
2019-02-07T00:11:04.619Z,877.06
2019-02-07T00:12:04.637Z,877.03
2019-02-07T00:13:56.945Z,877.04
2019-02-07T00:14:56.700Z,877.04
2019-02-07T00:16:49.332Z,877.04
2019-02-07T00:17:49.029Z,877.11
2019-02-07T00:19:42.606Z,877.10
2019-02-07T00:20:42.578Z,877.09
2019-02-07T00:22:34.674Z,877.18
2019-02-07T00:23:34.963Z,877.20
2019-02-07T00:25:28.292Z,877.23
2019-02-07T00:26:28.241Z,877.24
2019-02-07T00:28:20.385Z,877.31
2019-02-07T00:29:20.585Z,877.35
2019-02-07T00:31:13.913Z,877.37
2019-02-07T00:32:13.686Z,877.39
2019-02-07T00:34:06.253Z,877.43
2019-02-07T00:35:06.044Z,877.39
2019-02-07T00:36:59.778Z,877.38
2019-02-07T00:37:59.618Z,877.40
2019-02-07T00:39:51.931Z,877.41
2019-02-07T00:40:51.944Z,877.41
2019-02-07T00:42:45.018Z,877.45
2019-02-07T00:43:44.557Z,877.44
2019-02-07T00:45:37.946Z,877.49
2019-02-07T00:46:38.177Z,877.53
2019-02-07T00:48:31.504Z,877.53
2019-02-07T00:49:31.278Z,877.50
2019-02-07T00:51:24.847Z,877.52
2019-02-07T00:52:24.655Z,877.48
2019-02-07T00:54:17.412Z,877.44
2019-02-07T00:55:17.219Z,877.37
2019-02-07T00:57:09.281Z,877.36
2019-02-07T00:58:09.479Z,877.34
2019-02-07T01:00:03.348Z,877.32
2019-02-07T01:01:03.169Z,877.32
2019-02-07T01:02:55.821Z,877.34
2019-02-07T01:03:55.458Z,877.34
2019-02-07T01:05:48.300Z,877.35
2019-02-07T01:06:47.782Z,877.35
2019-02-07T01:08:40.148Z,877.38
2019-02-07T01:09:40.335Z,877.41
2019-02-07T01:11:32.947Z,877.42
2019-02-07T01:12:32.681Z,877.35
2019-02-07T01:14:24.842Z,877.35
2019-02-07T01:15:25.050Z,877.35
2019-02-07T01:17:18.599Z,877.32
2019-02-07T01:18:18.362Z,877.32
2019-02-07T01:20:11.726Z,877.29
2019-02-07T01:21:11.542Z,877.33
2019-02-07T01:23:04.089Z,877.36
2019-02-07T01:24:03.876Z,877.40
2019-02-07T01:25:57.459Z,877.39
2019-02-07T01:26:57.199Z,877.38
2019-02-07T01:28:49.730Z,877.23
2019-02-07T01:29:49.521Z,877.23
2019-02-07T01:31:41.817Z,877.17
2019-02-07T01:32:42.035Z,877.12
2019-02-07T01:34:35.460Z,877.08
2019-02-07T01:35:35.383Z,877.06
2019-02-07T01:37:27.731Z,877.13
2019-02-07T01:38:27.757Z,877.11
2019-02-07T01:40:20.296Z,877.00
2019-02-07T01:41:19.842Z,876.98
2019-02-07T01:43:12.452Z,876.95
2019-02-07T01:44:12.400Z,876.89
2019-02-07T01:46:04.805Z,876.88
2019-02-07T01:47:04.731Z,876.85
2019-02-07T01:48:57.065Z,876.79
2019-02-07T01:49:57.053Z,876.80
2019-02-07T01:51:50.704Z,876.73
2019-02-07T01:52:50.467Z,876.72
2019-02-07T01:54:42.743Z,876.78
2019-02-07T01:55:42.730Z,876.77
2019-02-07T01:57:36.280Z,876.77
2019-02-07T01:58:35.186Z,876.77
2019-02-07T02:00:27.764Z,876.74
2019-02-07T02:01:27.519Z,876.77
2019-02-07T02:03:21.368Z,876.77
2019-02-07T02:04:20.870Z,876.79
2019-02-07T02:06:14.331Z,876.82
2019-02-07T02:07:14.248Z,876.78
2019-02-07T02:09:08.040Z,876.77
2019-02-07T02:10:07.559Z,876.78
2019-02-07T02:11:59.960Z,876.81
2019-02-07T02:12:59.917Z,876.79
2019-02-07T02:14:53.512Z,876.82
2019-02-07T02:15:53.251Z,876.82
2019-02-07T02:17:45.832Z,876.84
2019-02-07T02:18:45.553Z,876.84
2019-02-07T02:20:39.088Z,876.82
2019-02-07T02:21:38.943Z,876.76
2019-02-07T02:23:31.254Z,876.75
2019-02-07T02:24:31.234Z,876.72
2019-02-07T02:26:23.659Z,876.71
2019-02-07T02:27:23.214Z,876.69
2019-02-07T02:29:15.775Z,876.66
2019-02-07T02:30:15.933Z,876.68
2019-02-07T02:32:09.089Z,876.68
2019-02-07T02:33:08.886Z,876.67
2019-02-07T02:35:02.470Z,876.64
2019-02-07T02:36:02.454Z,876.64
2019-02-07T02:37:56.059Z,876.63
2019-02-07T02:38:55.810Z,876.66
2019-02-07T02:40:48.235Z,876.70
2019-02-07T02:41:48.199Z,876.72
2019-02-07T02:43:40.815Z,876.80
2019-02-07T02:44:40.573Z,876.77
2019-02-07T02:46:32.655Z,876.73
2019-02-07T02:47:32.916Z,876.67
2019-02-07T02:49:26.494Z,876.63
2019-02-07T02:50:26.263Z,876.60
2019-02-07T02:52:18.376Z,876.60
2019-02-07T02:53:18.599Z,876.69
2019-02-07T02:55:10.931Z,876.62
2019-02-07T02:56:10.652Z,876.57
2019-02-07T02:58:04.287Z,876.68
2019-02-07T02:59:04.272Z,876.72
2019-02-07T03:00:57.373Z,876.67
2019-02-07T03:01:57.107Z,876.70
2019-02-07T03:03:49.387Z,876.64
2019-02-07T03:04:49.446Z,876.62
2019-02-07T03:06:42.772Z,876.59
2019-02-07T03:07:42.775Z,876.55
2019-02-07T03:09:34.894Z,876.60
2019-02-07T03:10:34.877Z,876.56
2019-02-07T03:12:28.667Z,876.60
2019-02-07T03:13:28.227Z,876.62
2019-02-07T03:15:20.836Z,876.66
2019-02-07T03:16:20.796Z,876.68
2019-02-07T03:18:14.380Z,876.70
2019-02-07T03:19:13.928Z,876.69
2019-02-07T03:21:06.492Z,876.74
2019-02-07T03:22:06.448Z,876.69
2019-02-07T03:23:58.895Z,876.72
2019-02-07T03:24:58.664Z,876.78
2019-02-07T03:26:51.043Z,876.79
2019-02-07T03:27:50.798Z,876.83
2019-02-07T03:29:44.522Z,876.81
2019-02-07T03:30:44.094Z,876.80
2019-02-07T03:32:36.233Z,876.82
2019-02-07T03:33:36.181Z,876.86
2019-02-07T03:35:29.809Z,876.87
2019-02-07T03:36:29.298Z,876.91
2019-02-07T03:38:22.928Z,876.87
2019-02-07T03:39:22.689Z,876.86
2019-02-07T03:41:16.205Z,876.89
2019-02-07T03:42:16.245Z,876.91
2019-02-07T03:44:08.604Z,876.87
2019-02-07T03:45:08.539Z,876.87
2019-02-07T03:47:01.895Z,876.84
2019-02-07T03:48:01.666Z,876.86
2019-02-07T03:49:54.262Z,876.85
2019-02-07T03:50:54.220Z,876.83
2019-02-07T03:52:47.528Z,876.81
2019-02-07T03:53:47.606Z,876.79
2019-02-07T03:55:39.231Z,876.77
2019-02-07T03:56:39.430Z,876.78
2019-02-07T03:58:32.759Z,876.71
2019-02-07T03:59:32.770Z,876.72
2019-02-07T04:01:24.888Z,876.68
2019-02-07T04:02:25.144Z,876.68
2019-02-07T04:04:17.775Z,876.62
2019-02-07T04:05:17.547Z,876.64
2019-02-07T04:07:09.935Z,876.61
2019-02-07T04:08:09.897Z,876.55
2019-02-07T04:10:03.672Z,876.50
2019-02-07T04:11:03.240Z,876.48
2019-02-07T04:12:56.857Z,876.47
2019-02-07T04:13:56.854Z,876.45
2019-02-07T04:15:50.152Z,876.43
2019-02-07T04:16:49.970Z,876.39
2019-02-07T04:18:42.504Z,876.37
2019-02-07T04:19:42.485Z,876.33
2019-02-07T04:21:34.766Z,876.25
2019-02-07T04:22:34.821Z,876.27
2019-02-07T04:24:27.736Z,876.23
2019-02-07T04:25:27.485Z,876.21
2019-02-07T04:27:21.271Z,876.17
2019-02-07T04:28:21.025Z,876.13
2019-02-07T04:30:13.155Z,876.10
2019-02-07T04:31:13.174Z,876.10
2019-02-07T04:33:06.959Z,876.06
2019-02-07T04:34:06.520Z,876.07
2019-02-07T04:36:00.104Z,876.07
2019-02-07T04:37:00.079Z,876.07
2019-02-07T04:38:52.670Z,876.09
2019-02-07T04:39:52.383Z,876.09
2019-02-07T04:41:44.725Z,876.01
2019-02-07T04:42:44.712Z,875.98
2019-02-07T04:44:37.590Z,875.93
2019-02-07T04:45:36.814Z,875.97
2019-02-07T04:47:29.386Z,876.00
2019-02-07T04:48:29.180Z,875.97
2019-02-07T04:50:22.286Z,875.95
2019-02-07T04:51:22.279Z,875.86
2019-02-07T04:53:14.377Z,875.89
2019-02-07T04:54:14.562Z,875.88
2019-02-07T04:56:07.158Z,875.87
2019-02-07T04:57:06.930Z,875.82
2019-02-07T04:59:00.026Z,875.72
2019-02-07T05:00:00.023Z,875.77
2019-02-07T05:01:53.477Z,875.72
2019-02-07T05:02:53.061Z,875.69
2019-02-07T05:04:46.616Z,875.63
2019-02-07T05:05:46.596Z,875.57
2019-02-07T05:07:39.211Z,875.53
2019-02-07T05:08:38.933Z,875.51
2019-02-07T05:10:31.261Z,875.54
2019-02-07T05:11:31.034Z,875.50
2019-02-07T05:13:24.831Z,875.48
2019-02-07T05:14:24.412Z,875.43
2019-02-07T05:16:17.866Z,875.48
2019-02-07T05:17:17.990Z,875.47
2019-02-07T05:19:11.286Z,875.41
2019-02-07T05:20:11.063Z,875.37
2019-02-07T05:22:03.404Z,875.31
2019-02-07T05:23:03.387Z,875.26
2019-02-07T05:24:56.200Z,875.26
2019-02-07T05:25:55.762Z,875.23
2019-02-07T05:27:49.126Z,875.24
2019-02-07T05:28:49.311Z,875.26
2019-02-07T05:30:41.696Z,875.16
2019-02-07T05:31:41.459Z,875.15
2019-02-07T05:33:33.996Z,875.14
2019-02-07T05:34:34.017Z,875.14
2019-02-07T05:36:26.549Z,875.10
2019-02-07T05:37:26.120Z,875.13
2019-02-07T05:39:18.227Z,875.09
2019-02-07T05:40:17.942Z,875.08
2019-02-07T05:42:10.552Z,875.05
2019-02-07T05:43:10.549Z,875.02
2019-02-07T05:45:03.894Z,874.97
2019-02-07T05:46:03.853Z,874.99
2019-02-07T05:47:56.216Z,874.95
2019-02-07T05:48:56.212Z,875.01
2019-02-07T05:50:49.332Z,875.05
2019-02-07T05:51:49.340Z,875.01
2019-02-07T05:53:41.857Z,875.00
2019-02-07T05:54:41.619Z,875.01
2019-02-07T05:56:34.199Z,874.99
2019-02-07T05:57:34.233Z,875.01
2019-02-07T05:59:27.803Z,875.04
2019-02-07T06:00:27.531Z,875.04
2019-02-07T06:02:19.916Z,875.02
2019-02-07T06:03:19.883Z,875.04
2019-02-07T06:05:13.478Z,875.02
2019-02-07T06:06:13.243Z,875.00
2019-02-07T06:08:05.545Z,874.96
2019-02-07T06:09:05.308Z,874.99
2019-02-07T06:10:59.098Z,874.96
2019-02-07T06:11:58.692Z,874.93
2019-02-07T06:13:51.024Z,874.94
2019-02-07T06:14:51.255Z,874.95
2019-02-07T06:16:44.608Z,874.99
2019-02-07T06:17:44.325Z,874.99
2019-02-07T06:19:36.898Z,874.93
2019-02-07T06:20:36.676Z,874.90
2019-02-07T06:22:29.451Z,874.90
2019-02-07T06:23:29.016Z,874.92
2019-02-07T06:25:21.361Z,874.88
2019-02-07T06:26:21.543Z,874.88
2019-02-07T06:28:14.266Z,874.83
2019-02-07T06:29:14.261Z,874.79
2019-02-07T06:31:07.622Z,874.76
2019-02-07T06:32:07.616Z,874.74
2019-02-07T06:34:00.162Z,874.74
2019-02-07T06:34:59.734Z,874.73
2019-02-07T06:36:52.455Z,874.70
2019-02-07T06:37:52.406Z,874.66
2019-02-07T06:39:45.751Z,874.63
2019-02-07T06:40:45.558Z,874.67
2019-02-07T06:42:37.984Z,874.65
2019-02-07T06:43:38.209Z,874.64
2019-02-07T06:45:30.445Z,874.67
2019-02-07T06:46:30.407Z,874.65
2019-02-07T06:48:23.793Z,874.65
2019-02-07T06:49:23.787Z,874.62
2019-02-07T06:51:17.446Z,874.64
2019-02-07T06:52:16.957Z,874.67
2019-02-07T06:54:10.226Z,874.66
2019-02-07T06:55:10.494Z,874.67
2019-02-07T06:57:04.010Z,874.60
2019-02-07T06:58:03.816Z,874.59
2019-02-07T06:59:56.162Z,874.53
2019-02-07T07:00:56.125Z,874.56
2019-02-07T07:02:49.246Z,874.55
2019-02-07T07:03:49.037Z,874.58
2019-02-07T07:05:41.118Z,874.59
2019-02-07T07:06:41.333Z,874.53
2019-02-07T07:08:34.727Z,874.55
2019-02-07T07:09:34.688Z,874.50
2019-02-07T07:11:27.019Z,874.50
2019-02-07T07:12:27.014Z,874.47
2019-02-07T07:14:19.593Z,874.45
2019-02-07T07:15:19.154Z,874.45
2019-02-07T07:17:12.696Z,874.46
2019-02-07T07:18:12.691Z,874.42
2019-02-07T07:20:05.396Z,874.44
2019-02-07T07:21:05.153Z,874.46
2019-02-07T07:22:57.785Z,874.44
2019-02-07T07:23:57.728Z,874.41
2019-02-07T07:25:51.125Z,874.40
2019-02-07T07:26:50.840Z,874.34
2019-02-07T07:28:44.310Z,874.35
2019-02-07T07:29:44.574Z,874.38
2019-02-07T07:31:37.916Z,874.40
2019-02-07T07:32:37.877Z,874.38
2019-02-07T07:34:30.094Z,874.39
2019-02-07T07:35:30.096Z,874.39
2019-02-07T07:37:22.657Z,874.35
2019-02-07T07:38:22.424Z,874.37
2019-02-07T07:40:15.021Z,874.40
2019-02-07T07:41:15.031Z,874.40
2019-02-07T07:43:07.664Z,874.41
2019-02-07T07:44:07.401Z,874.36
2019-02-07T07:46:00.075Z,874.35
2019-02-07T07:46:59.730Z,874.31
2019-02-07T07:48:53.521Z,874.29
2019-02-07T07:49:53.081Z,874.30
2019-02-07T07:51:45.449Z,874.33
2019-02-07T07:52:45.644Z,874.34
2019-02-07T07:54:39.234Z,874.34
2019-02-07T07:55:39.012Z,874.34
2019-02-07T07:57:31.339Z,874.36
2019-02-07T07:58:31.324Z,874.34
2019-02-07T08:00:24.270Z,874.34
2019-02-07T08:01:23.458Z,874.32
2019-02-07T08:03:17.036Z,874.31
2019-02-07T08:04:16.760Z,874.30
2019-02-07T08:06:10.295Z,874.34
2019-02-07T08:07:10.102Z,874.32
2019-02-07T08:09:03.493Z,874.31
2019-02-07T08:10:03.452Z,874.26
2019-02-07T08:11:57.026Z,874.24
2019-02-07T08:12:57.030Z,874.24
2019-02-07T08:14:49.164Z,874.21
2019-02-07T08:15:49.401Z,874.20
2019-02-07T08:17:47.435Z,874.21
2019-02-07T08:18:42.473Z,874.18
2019-02-07T08:20:34.820Z,874.22
2019-02-07T08:21:35.040Z,874.20
2019-02-07T08:23:28.398Z,874.20
2019-02-07T08:24:28.381Z,874.21
2019-02-07T08:26:20.775Z,874.19
2019-02-07T08:27:20.498Z,874.17
2019-02-07T08:29:14.333Z,874.21
2019-02-07T08:30:14.067Z,874.23
2019-02-07T08:32:06.219Z,874.27
2019-02-07T08:33:06.210Z,874.25
2019-02-07T08:34:59.746Z,874.28
2019-02-07T08:35:59.746Z,874.29
2019-02-07T08:37:53.106Z,874.30
2019-02-07T08:38:52.852Z,874.29
2019-02-07T08:40:45.685Z,874.26
2019-02-07T08:41:45.202Z,874.26
2019-02-07T08:43:38.568Z,874.27
2019-02-07T08:44:38.783Z,874.25
2019-02-07T08:46:32.329Z,874.25
2019-02-07T08:47:31.925Z,874.23
2019-02-07T08:49:24.470Z,874.22
2019-02-07T08:50:24.517Z,874.26
2019-02-07T08:52:17.004Z,874.29
2019-02-07T08:53:16.839Z,874.28
2019-02-07T08:55:09.911Z,874.27
2019-02-07T08:56:09.958Z,874.26
2019-02-07T08:58:02.188Z,874.26
2019-02-07T08:59:01.747Z,874.21
2019-02-07T09:00:55.111Z,874.23
2019-02-07T09:01:55.099Z,874.24
2019-02-07T09:03:49.473Z,874.22
2019-02-07T09:04:49.235Z,874.19
2019-02-07T09:06:41.071Z,874.18
2019-02-07T09:07:41.052Z,874.16
2019-02-07T09:09:34.403Z,874.19
2019-02-07T09:10:34.215Z,874.21
2019-02-07T09:12:27.771Z,874.26
2019-02-07T09:13:27.750Z,874.23
2019-02-07T09:15:20.317Z,874.24
2019-02-07T09:16:19.889Z,874.26
2019-02-07T09:18:13.520Z,874.24
2019-02-07T09:19:13.429Z,874.23
2019-02-07T09:21:06.042Z,874.22
2019-02-07T09:22:05.542Z,874.21
2019-02-07T09:23:58.933Z,874.17
2019-02-07T09:24:58.884Z,874.15
2019-02-07T09:26:51.886Z,874.16
2019-02-07T09:27:51.654Z,874.08
2019-02-07T09:29:44.784Z,874.08
2019-02-07T09:30:44.769Z,874.08
2019-02-07T09:32:38.335Z,874.10
2019-02-07T09:33:38.328Z,874.10
2019-02-07T09:35:30.412Z,874.08
2019-02-07T09:36:30.724Z,874.07
2019-02-07T09:38:23.226Z,874.05
2019-02-07T09:39:23.013Z,874.09
2019-02-07T09:41:16.374Z,874.08
2019-02-07T09:42:16.363Z,874.08
2019-02-07T09:44:08.683Z,874.07
2019-02-07T09:45:08.702Z,874.10
2019-02-07T09:47:01.783Z,874.15
2019-02-07T09:48:02.004Z,874.17
2019-02-07T09:49:54.343Z,874.15
2019-02-07T09:50:54.335Z,874.14
2019-02-07T09:52:47.693Z,874.05
2019-02-07T09:53:47.482Z,874.06
2019-02-07T09:55:40.397Z,874.00
2019-02-07T09:56:39.921Z,873.95
2019-02-07T09:58:32.260Z,873.96
2019-02-07T09:59:32.480Z,873.98
2019-02-07T10:01:25.835Z,873.98
2019-02-07T10:02:25.865Z,874.02
2019-02-07T10:04:18.215Z,874.05
2019-02-07T10:05:18.201Z,874.04
2019-02-07T10:07:11.794Z,874.06
2019-02-07T10:08:11.551Z,874.05
2019-02-07T10:10:03.884Z,874.01
2019-02-07T10:11:03.869Z,873.99
2019-02-07T10:12:56.824Z,873.96
2019-02-07T10:13:56.602Z,873.95
2019-02-07T10:15:48.981Z,873.94
2019-02-07T10:16:48.708Z,873.92
2019-02-07T10:18:42.478Z,873.94
2019-02-07T10:19:42.307Z,873.92
2019-02-07T10:21:35.660Z,873.93
2019-02-07T10:22:35.397Z,873.97
2019-02-07T10:24:29.185Z,873.98
2019-02-07T10:25:28.754Z,873.99
2019-02-07T10:27:21.103Z,873.99
2019-02-07T10:28:21.297Z,874.02
2019-02-07T10:30:14.873Z,874.04
2019-02-07T10:31:14.672Z,874.05
2019-02-07T10:33:07.994Z,874.10
2019-02-07T10:34:07.746Z,874.05
2019-02-07T10:36:00.927Z,874.06
2019-02-07T10:37:00.407Z,874.07
2019-02-07T10:38:52.787Z,874.09
2019-02-07T10:39:52.811Z,874.09
2019-02-07T10:41:45.518Z,874.11
2019-02-07T10:42:45.337Z,874.09
2019-02-07T10:44:37.463Z,874.12
2019-02-07T10:45:37.468Z,874.12
2019-02-07T10:47:30.521Z,874.11
2019-02-07T10:48:29.987Z,874.10
2019-02-07T10:50:22.661Z,874.10
2019-02-07T10:51:22.856Z,874.11
2019-02-07T10:53:16.155Z,874.13
2019-02-07T10:54:15.972Z,874.13
2019-02-07T10:56:09.417Z,874.14
2019-02-07T10:57:09.637Z,874.17
2019-02-07T10:59:03.169Z,874.17
2019-02-07T11:00:02.726Z,874.16
2019-02-07T11:01:55.185Z,874.15
2019-02-07T11:02:55.320Z,874.19
2019-02-07T11:04:48.372Z,874.21
2019-02-07T11:05:47.920Z,874.25
2019-02-07T11:07:41.313Z,874.26
2019-02-07T11:08:41.286Z,874.25
2019-02-07T11:10:33.814Z,874.27
2019-02-07T11:11:33.592Z,874.33
2019-02-07T11:13:27.208Z,874.31
2019-02-07T11:14:27.189Z,874.32
2019-02-07T11:16:19.787Z,874.33
2019-02-07T11:17:19.520Z,874.33
2019-02-07T11:19:21.026Z,874.31
2019-02-07T11:20:12.645Z,874.34
2019-02-07T11:22:05.412Z,874.29
2019-02-07T11:23:05.185Z,874.30
2019-02-07T11:24:57.142Z,874.30
2019-02-07T11:25:57.406Z,874.26
2019-02-07T11:27:49.967Z,874.28
2019-02-07T11:28:49.504Z,874.32
2019-02-07T11:30:42.073Z,874.31
2019-02-07T11:31:42.025Z,874.33
2019-02-07T11:33:34.586Z,874.35
2019-02-07T11:34:34.162Z,874.37
2019-02-07T11:36:26.759Z,874.37
2019-02-07T11:37:26.750Z,874.43
2019-02-07T11:39:20.285Z,874.40
2019-02-07T11:40:20.101Z,874.43
2019-02-07T11:42:12.182Z,874.42
2019-02-07T11:43:12.167Z,874.41
2019-02-07T11:45:04.728Z,874.42
2019-02-07T11:46:04.467Z,874.42
2019-02-07T11:47:57.198Z,874.38
2019-02-07T11:49:06.490Z,874.37
2019-02-07T11:50:49.427Z,874.33
2019-02-07T11:51:49.423Z,874.36
2019-02-07T11:53:41.786Z,874.32
2019-02-07T11:54:41.522Z,874.30
2019-02-07T11:56:34.710Z,874.28
2019-02-07T11:57:34.431Z,874.27
2019-02-07T11:59:26.828Z,874.29
2019-02-07T12:00:26.539Z,874.30
2019-02-07T12:02:20.097Z,874.35
2019-02-07T12:03:20.161Z,874.33
2019-02-07T12:05:12.457Z,874.35
2019-02-07T12:06:12.242Z,874.37
2019-02-07T12:08:06.040Z,874.35
2019-02-07T12:09:05.584Z,874.35
2019-02-07T12:10:59.152Z,874.29
2019-02-07T12:11:58.940Z,874.32
2019-02-07T12:13:50.994Z,874.34
2019-02-07T12:14:51.034Z,874.31
2019-02-07T12:16:43.128Z,874.36
2019-02-07T12:17:43.102Z,874.35
2019-02-07T12:19:35.930Z,874.37
2019-02-07T12:20:35.690Z,874.39
2019-02-07T12:22:29.025Z,874.43
2019-02-07T12:23:29.034Z,874.40
2019-02-07T12:25:21.330Z,874.43
2019-02-07T12:26:21.367Z,874.45
2019-02-07T12:28:13.727Z,874.51
2019-02-07T12:29:13.433Z,874.49
2019-02-07T12:31:07.045Z,874.52
2019-02-07T12:32:07.012Z,874.53
2019-02-07T12:33:59.172Z,874.53
2019-02-07T12:34:59.111Z,874.56
2019-02-07T12:36:52.918Z,874.49
2019-02-07T12:37:52.725Z,874.49
2019-02-07T12:39:45.812Z,874.48
2019-02-07T12:40:45.806Z,874.44
2019-02-07T12:42:38.543Z,874.41
2019-02-07T12:43:38.351Z,874.45
2019-02-07T12:45:31.753Z,874.47
2019-02-07T12:46:31.466Z,874.46
2019-02-07T12:48:24.334Z,874.47
2019-02-07T12:49:29.252Z,874.44
2019-02-07T12:51:17.201Z,874.44
2019-02-07T12:52:17.447Z,874.45
2019-02-07T12:54:10.006Z,874.47
2019-02-07T12:55:09.502Z,874.47
2019-02-07T12:57:03.099Z,874.47
2019-02-07T12:58:02.823Z,874.45
2019-02-07T12:59:55.353Z,874.44
2019-02-07T13:00:55.175Z,874.46
2019-02-07T13:02:49.316Z,874.42
2019-02-07T13:03:48.488Z,874.47
2019-02-07T13:05:41.546Z,874.44
2019-02-07T13:06:41.602Z,874.41
2019-02-07T13:08:33.701Z,874.42
2019-02-07T13:09:33.715Z,874.44
2019-02-07T13:11:27.499Z,874.44
2019-02-07T13:12:27.067Z,874.45
2019-02-07T13:14:19.669Z,874.51
2019-02-07T13:15:19.633Z,874.46
2019-02-07T13:17:12.187Z,874.48
2019-02-07T13:18:11.980Z,874.49
2019-02-07T13:20:05.136Z,874.51
2019-02-07T13:21:05.140Z,874.48
2019-02-07T13:22:58.018Z,874.49
2019-02-07T13:23:59.479Z,874.50
2019-02-07T13:25:50.354Z,874.52
2019-02-07T13:26:50.370Z,874.52
2019-02-07T13:28:43.692Z,874.51
2019-02-07T13:29:43.682Z,874.52
2019-02-07T13:31:37.170Z,874.54
2019-02-07T13:32:37.040Z,874.52
2019-02-07T13:34:30.557Z,874.53
2019-02-07T13:35:30.136Z,874.52
2019-02-07T13:37:22.438Z,874.54
2019-02-07T13:38:22.473Z,874.52
2019-02-07T13:40:15.016Z,874.53
2019-02-07T13:41:14.827Z,874.52
2019-02-07T13:43:07.129Z,874.54
2019-02-07T13:44:07.146Z,874.58
2019-02-07T13:45:59.209Z,874.53
2019-02-07T13:46:59.006Z,874.55
2019-02-07T13:48:51.307Z,874.50
2019-02-07T13:49:52.266Z,874.54
2019-02-07T13:51:44.909Z,874.49
2019-02-07T13:52:44.649Z,874.50
2019-02-07T13:54:36.995Z,874.46
2019-02-07T13:55:37.474Z,874.46
2019-02-07T13:57:30.538Z,874.43
2019-02-07T13:58:30.570Z,874.42
2019-02-07T14:00:23.448Z,874.39
2019-02-07T14:01:22.888Z,874.40
2019-02-07T14:03:16.532Z,874.44
2019-02-07T14:04:16.233Z,874.40
2019-02-07T14:06:08.379Z,874.40
2019-02-07T14:07:08.329Z,874.40
2019-02-07T14:09:01.101Z,874.30
2019-02-07T14:10:00.887Z,874.33
2019-02-07T14:11:54.048Z,874.34
2019-02-07T14:12:54.010Z,874.37
2019-02-07T14:14:46.829Z,874.31
2019-02-07T14:15:46.375Z,874.31
2019-02-07T14:17:39.765Z,874.27
2019-02-07T14:18:39.937Z,874.23
2019-02-07T14:20:33.287Z,874.25
2019-02-07T14:21:33.088Z,874.18
2019-02-07T14:23:26.676Z,874.23
2019-02-07T14:24:26.441Z,874.23
2019-02-07T14:26:19.218Z,874.26
2019-02-07T14:27:18.752Z,874.21
2019-02-07T14:29:12.118Z,874.24
2019-02-07T14:30:12.344Z,874.27
2019-02-07T14:32:04.885Z,874.29
2019-02-07T14:33:04.668Z,874.34
2019-02-07T14:34:57.800Z,874.33
2019-02-07T14:35:57.742Z,874.35
2019-02-07T14:37:50.545Z,874.32
2019-02-07T14:38:50.071Z,874.31
2019-02-07T14:40:42.678Z,874.31
2019-02-07T14:41:42.713Z,874.27
2019-02-07T14:43:38.002Z,874.32
2019-02-07T14:44:35.018Z,874.32
2019-02-07T14:46:28.334Z,874.33
2019-02-07T14:47:28.332Z,874.34
2019-02-07T14:49:20.799Z,874.30
2019-02-07T14:50:20.712Z,874.28
2019-02-07T14:52:13.041Z,874.23
2019-02-07T14:53:13.016Z,874.23
2019-02-07T14:55:05.674Z,874.21
2019-02-07T14:56:05.683Z,874.21
2019-02-07T14:57:58.842Z,874.23
2019-02-07T14:59:01.320Z,874.21
2019-02-07T15:00:51.355Z,874.21
2019-02-07T15:01:51.403Z,874.18
2019-02-07T15:03:44.501Z,874.18
2019-02-07T15:04:44.767Z,874.19
2019-02-07T15:06:37.752Z,874.17
2019-02-07T15:07:37.593Z,874.23
2019-02-07T15:09:29.954Z,874.15
2019-02-07T15:10:29.677Z,874.12
2019-02-07T15:12:23.252Z,874.11
2019-02-07T15:13:23.278Z,874.12
2019-02-07T15:15:15.390Z,874.06
2019-02-07T15:16:15.624Z,874.08
2019-02-07T15:18:07.914Z,874.03
2019-02-07T15:19:07.927Z,874.01
2019-02-07T15:21:01.075Z,873.96
2019-02-07T15:22:01.074Z,873.95
2019-02-07T15:23:54.823Z,874.00
2019-02-07T15:24:54.417Z,873.97
2019-02-07T15:26:46.991Z,873.98
2019-02-07T15:27:46.706Z,873.99
2019-02-07T15:29:40.234Z,873.97
2019-02-07T15:30:40.288Z,873.97
2019-02-07T15:32:32.530Z,873.93
2019-02-07T15:33:32.374Z,873.96
2019-02-07T15:35:25.965Z,873.89
2019-02-07T15:36:25.980Z,873.90
2019-02-07T15:38:18.076Z,873.91
2019-02-07T15:39:18.097Z,873.93
2019-02-07T15:41:11.657Z,873.97
2019-02-07T15:42:11.623Z,873.98
2019-02-07T15:44:04.028Z,873.95
2019-02-07T15:45:04.027Z,873.94
2019-02-07T15:46:56.306Z,873.89
2019-02-07T15:47:56.092Z,873.94
2019-02-07T15:49:49.444Z,873.92
2019-02-07T15:50:49.654Z,873.90
2019-02-07T15:52:42.993Z,873.90
2019-02-07T15:53:42.770Z,873.91
2019-02-07T15:55:36.138Z,873.86
2019-02-07T15:56:36.365Z,873.86
2019-02-07T15:58:29.649Z,873.84
2019-02-07T15:59:29.658Z,873.78
2019-02-07T16:01:22.785Z,873.82
2019-02-07T16:02:23.065Z,873.85
2019-02-07T16:04:16.605Z,873.84
2019-02-07T16:05:16.350Z,873.86
2019-02-07T16:07:09.042Z,873.87
2019-02-07T16:08:09.072Z,873.89
2019-02-07T16:10:02.329Z,873.88
2019-02-07T16:11:02.372Z,873.86
2019-02-07T16:12:54.838Z,873.92
2019-02-07T16:13:54.839Z,873.93
2019-02-07T16:15:48.683Z,873.94
2019-02-07T16:16:48.210Z,873.92
2019-02-07T16:18:41.908Z,873.94
2019-02-07T16:19:40.758Z,873.93
2019-02-07T16:21:33.926Z,873.98
2019-02-07T16:22:32.945Z,874.00
2019-02-07T16:24:25.671Z,874.00
2019-02-07T16:25:25.320Z,874.00
2019-02-07T16:27:19.100Z,874.00
2019-02-07T16:28:20.308Z,874.00
2019-02-07T16:30:11.359Z,874.01
2019-02-07T16:31:11.135Z,874.01
2019-02-07T16:33:03.652Z,874.02
2019-02-07T16:34:03.455Z,874.03
2019-02-07T16:35:56.823Z,874.05
2019-02-07T16:36:57.044Z,874.04
2019-02-07T16:38:49.492Z,874.06
2019-02-07T16:39:49.193Z,874.05
2019-02-07T16:41:41.730Z,874.06
2019-02-07T16:42:41.674Z,874.06
2019-02-07T16:44:34.210Z,874.03
2019-02-07T16:45:34.004Z,874.07
2019-02-07T16:47:26.360Z,874.08
2019-02-07T16:48:26.357Z,874.08
2019-02-07T16:50:19.676Z,874.10
2019-02-07T16:51:19.723Z,874.13
2019-02-07T16:53:12.022Z,874.17
2019-02-07T16:54:12.065Z,874.14
2019-02-07T16:56:05.599Z,874.10
2019-02-07T16:57:05.389Z,874.14
2019-02-07T16:58:57.593Z,874.11
2019-02-07T16:59:57.855Z,874.11
2019-02-07T17:01:51.427Z,874.09
2019-02-07T17:02:51.195Z,874.12
2019-02-07T17:04:43.071Z,874.11
2019-02-07T17:05:42.835Z,874.08
2019-02-07T17:07:36.190Z,874.07
2019-02-07T17:08:35.931Z,874.03
2019-02-07T17:10:28.447Z,874.09
2019-02-07T17:11:28.024Z,874.07
2019-02-07T17:13:20.873Z,874.08
2019-02-07T17:14:20.620Z,874.12
2019-02-07T17:16:13.795Z,874.09
2019-02-07T17:17:13.981Z,874.09
2019-02-07T17:19:07.335Z,874.03
2019-02-07T17:20:14.515Z,874.05
2019-02-07T17:22:00.440Z,874.13
2019-02-07T17:23:00.473Z,874.10
2019-02-07T17:24:53.270Z,874.14
2019-02-07T17:25:52.763Z,874.12
2019-02-07T17:27:45.152Z,874.15
2019-02-07T17:28:45.324Z,874.13
2019-02-07T17:30:37.880Z,874.10
2019-02-07T17:31:37.431Z,874.16
2019-02-07T17:33:31.063Z,874.16
2019-02-07T17:34:30.839Z,874.14
2019-02-07T17:36:24.411Z,874.16
2019-02-07T17:37:24.379Z,874.12
2019-02-07T17:39:17.496Z,874.10
2019-02-07T17:40:17.494Z,874.11
2019-02-07T17:42:10.329Z,874.10
2019-02-07T17:43:10.109Z,874.09
2019-02-07T17:45:02.764Z,874.11
2019-02-07T17:46:02.534Z,874.13
2019-02-07T17:47:55.113Z,874.12
2019-02-07T17:48:54.867Z,874.12
2019-02-07T17:50:47.200Z,874.13
2019-02-07T17:51:47.500Z,874.14
2019-02-07T17:53:41.008Z,874.12
2019-02-07T17:54:40.576Z,874.16
2019-02-07T17:56:33.154Z,874.11
2019-02-07T17:57:33.092Z,874.11